createdAt,value
2022-09-04T00:02:08.395Z,13.02
2022-09-04T00:06:18.966Z,13.02
2022-09-04T00:10:33.153Z,13.02
2022-09-04T00:14:45.804Z,13.05
2022-09-04T00:18:59.747Z,13.05
2022-09-04T00:23:14.398Z,13.06
2022-09-04T00:27:25.282Z,13.04
2022-09-04T00:31:39.188Z,13.00
2022-09-04T00:35:51.936Z,12.95
2022-09-04T00:40:02.120Z,12.93
2022-09-04T00:44:28.477Z,12.91
2022-09-04T00:48:58.100Z,12.92
2022-09-04T00:53:23.534Z,12.90
2022-09-04T00:58:05.095Z,12.85
2022-09-04T01:02:21.562Z,12.79
2022-09-04T01:06:37.152Z,12.80
2022-09-04T01:10:51.505Z,12.82
2022-09-04T01:15:15.923Z,12.82
2022-09-04T01:19:37.895Z,12.86
2022-09-04T01:24:01.346Z,12.86
2022-09-04T01:28:11.249Z,12.84
2022-09-04T01:32:27.958Z,12.83
2022-09-04T01:36:40.791Z,12.82
2022-09-04T01:40:53.416Z,12.86
2022-09-04T01:45:01.475Z,12.88
2022-09-04T01:49:15.884Z,12.86
2022-09-04T01:53:27.838Z,12.82
2022-09-04T01:57:51.821Z,12.79
2022-09-04T02:02:03.584Z,12.79
2022-09-04T02:06:18.077Z,12.84
2022-09-04T02:10:35.583Z,12.89
2022-09-04T02:14:54.546Z,12.90
2022-09-04T02:19:08.289Z,12.88
2022-09-04T02:23:21.867Z,12.85
2022-09-04T02:27:36.750Z,12.84
2022-09-04T02:31:52.977Z,12.86
2022-09-04T02:36:06.756Z,12.86
2022-09-04T02:40:22.182Z,12.85
2022-09-04T02:44:41.390Z,12.84
2022-09-04T02:49:02.529Z,12.82
2022-09-04T02:53:25.757Z,12.80
2022-09-04T02:57:42.173Z,12.73
2022-09-04T03:01:57.751Z,12.69
2022-09-04T03:06:10.244Z,12.67
2022-09-04T03:10:20.905Z,12.67
2022-09-04T03:14:34.731Z,12.67
2022-09-04T03:19:08.685Z,12.68
2022-09-04T03:23:19.795Z,12.63
2022-09-04T03:27:28.206Z,12.57
2022-09-04T03:31:42.152Z,12.53
2022-09-04T03:35:55.396Z,12.50
2022-09-04T03:40:18.234Z,12.46
2022-09-04T03:44:33.170Z,12.36
2022-09-04T03:48:53.118Z,12.36
2022-09-04T03:53:05.936Z,12.35
2022-09-04T03:57:24.698Z,12.36
2022-09-04T04:01:40.221Z,12.40
2022-09-04T04:05:57.311Z,12.45
2022-09-04T04:10:14.881Z,12.48
2022-09-04T04:14:40.636Z,12.45
2022-09-04T04:19:26.512Z,12.43
2022-09-04T04:24:03.932Z,12.46
2022-09-04T04:28:24.541Z,12.54
2022-09-04T04:33:01.387Z,12.55
2022-09-04T04:37:13.618Z,12.63
2022-09-04T04:41:32.513Z,12.71
2022-09-04T04:45:52.217Z,12.77
2022-09-04T04:50:09.995Z,12.82
2022-09-04T04:54:27.645Z,12.83
2022-09-04T04:58:48.625Z,12.80
2022-09-04T05:03:03.662Z,12.81
2022-09-04T05:07:19.253Z,12.75
2022-09-04T05:11:36.140Z,12.70
2022-09-04T05:16:07.868Z,12.67
2022-09-04T05:20:29.045Z,12.63
2022-09-04T05:24:39.647Z,12.69
2022-09-04T05:28:56.415Z,12.81
2022-09-04T05:33:10.386Z,12.90
2022-09-04T05:37:21.290Z,12.99
2022-09-04T05:41:40.925Z,13.10
2022-09-04T05:45:58.622Z,13.16
2022-09-04T05:50:27.723Z,13.19
2022-09-04T05:54:52.324Z,13.20
2022-09-04T05:59:31.444Z,13.21
2022-09-04T06:03:55.108Z,13.29
2022-09-04T06:08:14.167Z,13.35
2022-09-04T06:12:42.650Z,13.48
2022-09-04T06:17:02.423Z,13.59
2022-09-04T06:21:27.166Z,13.68
2022-09-04T06:26:07.377Z,13.78
2022-09-04T06:30:16.108Z,13.87
2022-09-04T06:34:33.359Z,13.98
2022-09-04T06:38:57.466Z,14.07
2022-09-04T06:43:16.558Z,14.18
2022-09-04T06:47:32.432Z,14.30
2022-09-04T06:51:53.760Z,14.37
2022-09-04T06:56:11.855Z,14.46
2022-09-04T07:00:25.478Z,14.60
2022-09-04T07:04:46.000Z,14.71
2022-09-04T07:09:06.553Z,14.74
2022-09-04T07:13:36.670Z,14.80
2022-09-04T07:17:55.726Z,15.04
2022-09-04T07:22:20.836Z,15.25
2022-09-04T07:26:36.708Z,15.36
2022-09-04T07:30:49.056Z,15.48
2022-09-04T07:35:04.333Z,15.72
2022-09-04T07:39:20.112Z,15.96
2022-09-04T07:43:32.507Z,16.16
2022-09-04T07:47:46.728Z,16.32
2022-09-04T07:51:59.319Z,16.46
2022-09-04T07:56:13.602Z,16.60
2022-09-04T08:00:22.951Z,16.69
2022-09-04T08:04:52.503Z,16.82
2022-09-04T08:09:28.955Z,16.94
2022-09-04T08:14:02.879Z,17.10
2022-09-04T08:18:24.122Z,17.22
2022-09-04T08:22:40.006Z,17.31
2022-09-04T08:26:58.270Z,17.38
2022-09-04T08:31:13.079Z,17.45
2022-09-04T08:35:26.633Z,17.45
2022-09-04T08:39:39.028Z,17.59
2022-09-04T08:44:17.855Z,17.73
2022-09-04T08:48:52.007Z,17.81
2022-09-04T08:53:41.649Z,17.87
2022-09-04T08:58:19.970Z,17.98
2022-09-04T09:08:17.945Z,17.97
2022-09-04T09:12:55.637Z,17.91
2022-09-04T09:17:21.516Z,17.97
2022-09-04T09:21:49.896Z,18.07
2022-09-04T09:26:09.036Z,18.19
2022-09-04T09:30:19.284Z,18.30
2022-09-04T09:35:02.844Z,18.38
2022-09-04T09:39:34.792Z,18.40
2022-09-04T09:44:05.932Z,18.28
2022-09-04T09:48:37.788Z,18.36
2022-09-04T09:53:21.185Z,18.46
2022-09-04T09:58:15.586Z,18.51
2022-09-04T10:02:56.610Z,18.53
2022-09-04T10:07:31.351Z,18.66
2022-09-04T10:12:00.803Z,18.88
2022-09-04T10:16:39.055Z,19.04
2022-09-04T10:21:46.942Z,19.22
2022-09-04T10:26:04.911Z,19.42
2022-09-04T10:30:13.809Z,19.51
2022-09-04T10:34:37.454Z,19.67
2022-09-04T10:39:12.832Z,19.90
2022-09-04T10:43:29.363Z,19.99
2022-09-04T10:47:52.587Z,20.03
2022-09-04T10:52:32.500Z,20.13
2022-09-04T10:56:47.429Z,20.23
2022-09-04T11:01:13.959Z,20.33
2022-09-04T11:05:36.863Z,20.41
2022-09-04T11:10:16.255Z,20.53
2022-09-04T11:14:38.803Z,20.66
2022-09-04T11:19:10.549Z,20.77
2022-09-04T11:23:41.690Z,20.89
2022-09-04T11:28:21.461Z,21.01
2022-09-04T11:32:59.081Z,21.16
2022-09-04T11:37:35.864Z,21.27
2022-09-04T11:42:22.590Z,21.37
2022-09-04T11:46:47.976Z,21.54
2022-09-04T11:51:19.890Z,21.70
2022-09-04T11:55:43.649Z,21.84
2022-09-04T12:00:11.756Z,21.96
2022-09-04T12:04:35.292Z,22.11
2022-09-04T12:09:13.056Z,22.25
2022-09-04T12:13:44.196Z,22.28
2022-09-04T12:18:22.897Z,22.34
2022-09-04T12:22:57.589Z,22.47
2022-09-04T12:27:29.507Z,22.55
2022-09-04T12:31:52.831Z,22.62
2022-09-04T12:36:29.153Z,22.65
2022-09-04T12:40:37.633Z,22.74
2022-09-04T12:44:58.220Z,22.83
2022-09-04T12:49:22.112Z,22.84
2022-09-04T12:53:50.475Z,22.91
2022-09-04T12:58:13.060Z,22.99
2022-09-04T13:02:32.917Z,23.11
2022-09-04T13:06:50.365Z,23.28
2022-09-04T13:11:13.637Z,23.32
2022-09-04T13:15:31.393Z,23.35
2022-09-04T13:19:47.194Z,23.47
2022-09-04T13:24:04.557Z,23.57
2022-09-04T13:28:19.879Z,23.62
2022-09-04T13:32:40.434Z,23.65
2022-09-04T13:36:55.774Z,23.68
2022-09-04T13:41:35.433Z,23.72
2022-09-04T13:45:47.410Z,23.77
2022-09-04T13:49:59.946Z,23.85
2022-09-04T13:54:13.321Z,23.83
2022-09-04T13:58:23.684Z,23.67
2022-09-04T14:02:35.009Z,23.46
2022-09-04T14:06:44.691Z,23.30
2022-09-04T14:11:22.600Z,23.27
2022-09-04T14:15:40.247Z,23.44
2022-09-04T14:19:57.654Z,23.66
2022-09-04T14:24:12.093Z,23.87
2022-09-04T14:28:25.401Z,23.91
2022-09-04T14:32:45.279Z,23.88
2022-09-04T14:36:57.321Z,23.88
2022-09-04T14:41:18.918Z,23.88
2022-09-04T14:45:48.410Z,23.85
2022-09-04T14:49:57.453Z,23.86
2022-09-04T14:54:06.182Z,23.88
2022-09-04T14:58:20.261Z,23.89
2022-09-04T15:02:34.498Z,23.88
2022-09-04T15:07:10.413Z,23.75
2022-09-04T15:11:31.982Z,23.54
2022-09-04T15:15:43.571Z,23.37
2022-09-04T15:19:55.531Z,23.25
2022-09-04T15:24:16.153Z,23.12
2022-09-04T15:28:28.580Z,23.09
2022-09-04T15:32:40.081Z,23.10
2022-09-04T15:36:50.145Z,23.06
2022-09-04T15:41:17.364Z,22.96
2022-09-04T15:45:29.368Z,22.92
2022-09-04T15:49:47.118Z,22.86
2022-09-04T15:54:23.564Z,22.83
2022-09-04T15:58:38.189Z,22.80
2022-09-04T16:02:54.988Z,22.76
2022-09-04T16:07:34.299Z,22.68
2022-09-04T16:11:44.935Z,22.63
2022-09-04T16:15:54.300Z,22.61
2022-09-04T16:20:10.554Z,22.59
2022-09-04T16:24:21.498Z,22.57
2022-09-04T16:28:31.744Z,22.53
2022-09-04T16:32:45.569Z,22.49
2022-09-04T16:37:05.297Z,22.47
2022-09-04T16:41:17.449Z,22.43
2022-09-04T16:45:27.792Z,22.37
2022-09-04T16:49:47.198Z,22.31
2022-09-04T16:54:03.995Z,22.24
2022-09-04T16:58:29.926Z,22.20
2022-09-04T17:02:52.113Z,22.11
2022-09-04T17:07:09.533Z,22.04
2022-09-04T17:11:19.636Z,21.91
2022-09-04T17:15:32.148Z,21.77
2022-09-04T17:19:40.040Z,21.64
2022-09-04T17:29:00.564Z,21.54
2022-09-04T17:29:09.932Z,21.40
2022-09-04T17:37:13.325Z,21.21
2022-09-04T17:40:40.112Z,21.05
2022-09-04T17:42:15.833Z,20.96
2022-09-04T17:46:29.602Z,20.86
2022-09-04T17:50:41.472Z,20.68
2022-09-04T17:54:51.566Z,20.51
2022-09-04T17:59:04.808Z,20.39
2022-09-04T18:03:26.130Z,20.31
2022-09-04T18:08:09.977Z,20.23
2022-09-04T18:12:18.422Z,20.11
2022-09-04T18:17:11.803Z,20.02
2022-09-04T18:21:24.529Z,19.93
2022-09-04T18:25:35.218Z,19.83
2022-09-04T18:35:05.117Z,19.73
2022-09-04T18:37:16.621Z,19.66
2022-09-04T18:39:04.108Z,19.59
2022-09-04T18:50:31.291Z,19.54
2022-09-04T18:50:46.124Z,19.51
2022-09-04T18:52:30.405Z,19.47
2022-09-04T18:56:48.205Z,19.44
2022-09-04T19:00:59.638Z,19.39
2022-09-04T19:05:09.044Z,19.31
2022-09-04T19:09:21.259Z,19.25
2022-09-04T19:13:33.185Z,19.22
2022-09-04T19:17:42.514Z,19.22
2022-09-04T19:21:57.691Z,19.20
2022-09-04T19:26:18.271Z,19.17
2022-09-04T19:30:27.638Z,19.17
2022-09-04T19:34:42.085Z,19.16
2022-09-04T19:45:56.012Z,19.08
2022-09-04T19:45:59.228Z,18.99
2022-09-04T19:48:02.253Z,18.89
2022-09-04T19:52:15.101Z,18.83
2022-09-04T19:57:16.112Z,18.74
2022-09-04T20:01:21.505Z,18.68
2022-09-04T20:05:32.370Z,18.61
2022-09-04T20:09:45.045Z,18.55
2022-09-04T20:13:55.125Z,18.53
2022-09-04T20:18:11.991Z,18.48
2022-09-04T20:22:32.291Z,18.42
2022-09-04T20:26:50.157Z,18.32
2022-09-04T20:31:36.363Z,18.23
2022-09-04T20:35:48.739Z,18.12
2022-09-04T20:40:06.120Z,18.02
2022-09-04T20:44:21.943Z,17.97
2022-09-04T20:52:50.477Z,17.95
2022-09-04T20:53:13.654Z,17.93
2022-09-04T21:00:46.769Z,17.83
2022-09-04T21:03:21.879Z,17.76
2022-09-04T21:06:52.257Z,17.66
2022-09-04T21:11:39.300Z,17.54
2022-09-04T21:15:42.457Z,17.41
2022-09-04T21:20:11.059Z,17.33
2022-09-04T21:24:29.236Z,17.26
2022-09-04T21:29:11.211Z,17.17
2022-09-04T21:33:28.179Z,17.06
2022-09-04T21:37:47.974Z,17.00
2022-09-04T21:42:16.444Z,16.95
2022-09-04T21:46:42.376Z,16.88
2022-09-04T21:51:07.856Z,16.85
2022-09-04T21:58:27.859Z,16.82
2022-09-04T22:02:43.252Z,16.82
2022-09-04T22:04:57.627Z,16.83
2022-09-04T22:13:26.494Z,16.83
2022-09-04T22:13:50.287Z,16.81
2022-09-04T22:18:19.437Z,16.77
2022-09-04T22:22:44.454Z,16.75
2022-09-04T22:27:30.494Z,16.72
2022-09-04T22:32:06.371Z,16.69
2022-09-04T22:37:00.484Z,16.68
2022-09-04T22:41:31.930Z,16.69
2022-09-04T22:46:08.395Z,16.71
2022-09-04T22:50:49.945Z,16.73
2022-09-04T22:55:23.354Z,16.77
2022-09-04T23:00:00.333Z,16.83
2022-09-04T23:04:26.567Z,16.88
2022-09-04T23:13:44.740Z,16.88
2022-09-04T23:14:06.369Z,16.83
2022-09-04T23:26:04.324Z,16.77
2022-09-04T23:26:46.814Z,16.67
2022-09-04T23:28:09.158Z,16.57
2022-09-04T23:33:15.210Z,16.52
2022-09-04T23:38:19.540Z,16.46
2022-09-04T23:43:19.071Z,16.37
2022-09-04T23:47:59.852Z,16.30
2022-09-04T23:52:31.087Z,16.29
2022-09-04T23:57:03.157Z,16.28
